createdAt,value
2022-11-23T00:00:52.716Z,74.48
2022-11-23T00:03:45.240Z,76.45
2022-11-23T00:06:25.379Z,76.98
2022-11-23T00:09:17.957Z,75.42
2022-11-23T00:11:57.488Z,75.89
2022-11-23T00:14:52.696Z,77.27
2022-11-23T00:17:35.029Z,77.00
2022-11-23T00:20:23.236Z,76.57
2022-11-23T00:22:51.090Z,76.36
2022-11-23T00:25:18.874Z,76.67
2022-11-23T00:28:03.961Z,76.13
2022-11-23T00:30:54.950Z,76.26
2022-11-23T00:33:38.694Z,75.92
2022-11-23T00:36:10.675Z,76.82
2022-11-23T00:38:38.768Z,77.12
2022-11-23T00:41:14.255Z,77.22
2022-11-23T00:43:43.434Z,74.11
2022-11-23T00:46:21.078Z,74.67
2022-11-23T00:48:50.966Z,75.91
2022-11-23T00:51:29.823Z,76.28
2022-11-23T00:53:57.769Z,76.55
2022-11-23T00:56:51.783Z,74.87
2022-11-23T00:59:26.973Z,74.59
2022-11-23T01:02:20.767Z,73.32
2022-11-23T01:04:50.251Z,73.72
2022-11-23T01:07:41.876Z,74.06
2022-11-23T01:10:23.855Z,75.99
2022-11-23T01:12:52.165Z,74.68
2022-11-23T01:15:19.799Z,75.46
2022-11-23T01:17:47.490Z,75.05
2022-11-23T01:20:15.851Z,74.35
2022-11-23T01:22:43.517Z,74.01
2022-11-23T01:25:11.179Z,74.20
2022-11-23T01:27:52.915Z,74.39
2022-11-23T01:30:44.885Z,74.38
2022-11-23T01:33:39.747Z,73.46
2022-11-23T01:36:32.895Z,74.95
2022-11-23T01:39:12.922Z,75.30
2022-11-23T01:41:54.865Z,74.84
2022-11-23T01:44:48.777Z,76.57
2022-11-23T01:47:28.205Z,74.09
2022-11-23T01:50:18.881Z,76.16
2022-11-23T01:52:58.430Z,73.72
2022-11-23T01:55:51.679Z,73.61
2022-11-23T01:58:22.873Z,73.75
2022-11-23T02:00:51.804Z,75.83
2022-11-23T02:03:20.061Z,75.12
2022-11-23T02:05:52.601Z,74.43
2022-11-23T02:08:25.741Z,75.06
2022-11-23T02:10:56.190Z,74.42
2022-11-23T02:13:48.430Z,74.65
2022-11-23T02:16:18.323Z,74.92
2022-11-23T02:18:49.688Z,74.41
2022-11-23T02:21:37.146Z,74.20
2022-11-23T02:24:23.909Z,74.26
2022-11-23T02:26:52.077Z,74.75
2022-11-23T02:29:44.598Z,74.15
2022-11-23T02:32:38.956Z,75.18
2022-11-23T02:35:29.906Z,76.20
2022-11-23T02:38:09.691Z,75.30
2022-11-23T02:41:04.163Z,75.52
2022-11-23T02:43:32.322Z,75.22
2022-11-23T02:46:02.199Z,75.66
2022-11-23T02:48:30.200Z,73.99
2022-11-23T02:50:57.821Z,73.91
2022-11-23T02:53:45.203Z,73.74
2022-11-23T02:56:53.952Z,75.29
2022-11-23T02:59:24.558Z,75.84
2022-11-23T03:01:59.184Z,74.38
2022-11-23T03:05:02.286Z,73.79
2022-11-23T03:07:30.284Z,77.17
2022-11-23T03:09:58.824Z,75.24
2022-11-23T03:12:27.347Z,73.41
2022-11-23T03:15:15.680Z,74.85
2022-11-23T03:17:43.481Z,75.90
2022-11-23T03:20:34.953Z,75.84
2022-11-23T03:23:25.907Z,74.84
2022-11-23T03:26:17.917Z,75.39
2022-11-23T03:29:09.889Z,72.84
2022-11-23T03:32:01.307Z,73.41
2022-11-23T03:34:52.990Z,73.58
2022-11-23T03:37:44.045Z,74.59
2022-11-23T03:40:12.653Z,74.09
2022-11-23T03:43:07.804Z,73.39
2022-11-23T03:45:59.091Z,73.56
2022-11-23T03:48:52.710Z,74.53
2022-11-23T03:51:46.669Z,74.35
2022-11-23T03:54:42.242Z,74.22
2022-11-23T03:57:38.147Z,73.21
2022-11-23T04:00:38.003Z,75.15
2022-11-23T04:03:06.792Z,72.96
2022-11-23T04:05:52.013Z,74.64
2022-11-23T04:08:21.733Z,75.41
2022-11-23T04:10:49.635Z,72.94
2022-11-23T04:13:18.047Z,73.87
2022-11-23T04:15:49.067Z,73.76
2022-11-23T04:18:16.698Z,72.61
2022-11-23T04:20:46.909Z,75.05
2022-11-23T04:23:27.894Z,76.53
2022-11-23T04:26:33.662Z,74.79
2022-11-23T04:29:04.034Z,75.14
2022-11-23T04:31:36.909Z,75.16
2022-11-23T04:34:06.548Z,74.59
2022-11-23T04:36:35.382Z,74.55
2022-11-23T04:39:04.617Z,72.75
2022-11-23T04:41:35.171Z,72.90
2022-11-23T04:44:24.542Z,73.06
2022-11-23T04:46:57.914Z,74.23
2022-11-23T04:49:38.928Z,73.22
2022-11-23T04:52:29.384Z,75.78
2022-11-23T04:55:19.180Z,73.83
2022-11-23T04:57:48.910Z,74.54
2022-11-23T05:00:59.164Z,73.76
2022-11-23T05:03:28.352Z,71.93
2022-11-23T05:05:59.912Z,72.27
2022-11-23T05:08:30.206Z,72.93
2022-11-23T05:11:23.886Z,74.17
2022-11-23T05:14:15.259Z,74.88
2022-11-23T05:17:10.009Z,74.30
2022-11-23T05:20:01.077Z,73.38
2022-11-23T05:22:50.280Z,74.08
2022-11-23T05:25:47.972Z,73.98
2022-11-23T05:28:40.141Z,74.71
2022-11-23T05:31:12.292Z,73.26
2022-11-23T05:33:41.253Z,74.99
2022-11-23T05:36:39.579Z,74.39
2022-11-23T05:39:27.358Z,74.42
2022-11-23T05:42:10.918Z,73.96
2022-11-23T05:44:43.198Z,74.49
2022-11-23T05:47:11.960Z,73.78
2022-11-23T05:49:55.662Z,73.70
2022-11-23T05:52:26.349Z,74.40
2022-11-23T05:54:59.029Z,73.63
2022-11-23T05:57:29.659Z,73.33
2022-11-23T06:00:03.284Z,74.35
2022-11-23T06:02:41.225Z,73.35
2022-11-23T06:05:12.501Z,74.72
2022-11-23T06:07:43.946Z,73.67
2022-11-23T06:10:18.331Z,75.18
2022-11-23T06:12:47.364Z,75.34
2022-11-23T06:15:17.078Z,74.29
2022-11-23T06:17:45.888Z,73.10
2022-11-23T06:20:14.289Z,73.37
2022-11-23T06:22:44.194Z,73.21
2022-11-23T06:25:12.937Z,72.70
2022-11-23T06:27:55.999Z,73.52
2022-11-23T06:30:32.922Z,72.93
2022-11-23T06:33:04.855Z,73.95
2022-11-23T06:35:35.807Z,74.85
2022-11-23T06:38:05.552Z,73.87
2022-11-23T06:40:34.247Z,72.93
2022-11-23T06:43:04.647Z,72.31
2022-11-23T06:45:41.320Z,72.91
2022-11-23T06:48:45.496Z,73.42
2022-11-23T06:51:37.128Z,73.74
2022-11-23T06:54:27.210Z,74.39
2022-11-23T06:57:11.025Z,75.75
2022-11-23T06:59:44.539Z,75.11
2022-11-23T07:02:36.673Z,73.98
2022-11-23T07:05:07.603Z,74.44
2022-11-23T07:07:54.866Z,73.83
2022-11-23T07:11:03.885Z,74.43
2022-11-23T07:14:06.061Z,73.19
2022-11-23T07:16:39.927Z,73.89
2022-11-23T07:19:10.969Z,74.63
2022-11-23T07:21:39.596Z,74.47
2022-11-23T07:24:21.864Z,73.20
2022-11-23T07:26:57.944Z,74.61
2022-11-23T07:29:27.159Z,74.01
2022-11-23T07:31:57.900Z,73.20
2022-11-23T07:34:52.856Z,72.44
2022-11-23T07:37:38.106Z,72.73
2022-11-23T07:40:19.623Z,74.54
2022-11-23T07:43:03.562Z,73.09
2022-11-23T07:45:34.538Z,74.44
2022-11-23T07:48:25.696Z,74.21
2022-11-23T07:51:32.216Z,71.99
2022-11-23T07:54:06.065Z,72.84
2022-11-23T07:56:39.830Z,72.79
2022-11-23T07:59:23.933Z,73.93
2022-11-23T08:01:58.353Z,74.82
2022-11-23T08:04:34.215Z,74.23
2022-11-23T08:07:04.998Z,72.26
2022-11-23T08:09:35.115Z,72.74
2022-11-23T08:12:16.370Z,72.51
2022-11-23T08:14:58.974Z,72.58
2022-11-23T08:17:41.017Z,71.53
2022-11-23T08:20:14.320Z,73.28
2022-11-23T08:22:46.281Z,73.75
2022-11-23T08:25:17.025Z,73.35
2022-11-23T08:27:44.982Z,73.09
2022-11-23T08:30:16.011Z,73.64
2022-11-23T08:32:45.533Z,73.16
2022-11-23T08:35:23.733Z,71.76
2022-11-23T08:37:51.898Z,71.16
2022-11-23T08:40:25.819Z,72.52
2022-11-23T08:43:00.968Z,71.57
2022-11-23T08:45:31.335Z,72.37
2022-11-23T08:48:04.883Z,72.91
2022-11-23T08:50:35.660Z,73.66
2022-11-23T08:53:06.427Z,74.29
2022-11-23T08:55:38.035Z,73.75
2022-11-23T08:58:13.402Z,72.01
2022-11-23T09:00:43.391Z,71.85
2022-11-23T09:03:12.843Z,71.89
2022-11-23T09:05:40.928Z,70.50
2022-11-23T09:08:09.633Z,72.22
2022-11-23T09:13:15.061Z,71.48
2022-11-23T09:15:44.477Z,71.16
2022-11-23T09:18:12.549Z,70.33
2022-11-23T09:20:40.600Z,70.63
2022-11-23T09:23:14.065Z,70.73
2022-11-23T09:25:48.643Z,71.07
2022-11-23T09:28:19.769Z,72.11
2022-11-23T09:30:48.712Z,72.07
2022-11-23T09:33:26.359Z,71.87
2022-11-23T09:36:02.748Z,71.49
2022-11-23T09:38:55.534Z,70.83
2022-11-23T09:41:23.696Z,71.36
2022-11-23T09:44:03.939Z,71.92
2022-11-23T09:46:51.557Z,71.53
2022-11-23T09:49:32.995Z,71.53
2022-11-23T09:52:03.231Z,70.75
2022-11-23T09:57:17.093Z,70.51
2022-11-23T09:59:53.441Z,71.44
2022-11-23T10:02:24.059Z,70.97
2022-11-23T10:04:53.828Z,72.04
2022-11-23T10:07:35.483Z,71.92
2022-11-23T10:10:13.052Z,70.30
2022-11-23T10:12:46.049Z,71.02
2022-11-23T10:15:58.925Z,70.79
2022-11-23T10:18:55.416Z,71.73
2022-11-23T10:21:48.472Z,72.11
2022-11-23T10:24:44.698Z,70.46
2022-11-23T10:27:20.025Z,71.90
2022-11-23T10:29:49.728Z,72.92
2022-11-23T10:32:41.038Z,71.20
2022-11-23T10:35:28.355Z,70.60
2022-11-23T10:38:18.704Z,72.18
2022-11-23T10:41:04.860Z,71.52
2022-11-23T10:43:48.975Z,71.60
2022-11-23T10:46:29.914Z,72.46
2022-11-23T10:49:21.842Z,70.71
2022-11-23T10:52:33.030Z,69.09
2022-11-23T10:55:05.897Z,70.05
2022-11-23T10:57:43.684Z,71.46
2022-11-23T11:00:30.259Z,73.04
2022-11-23T11:03:23.127Z,71.19
2022-11-23T11:06:09.484Z,70.80
2022-11-23T11:09:06.439Z,71.41
2022-11-23T11:11:39.530Z,70.43
2022-11-23T11:14:23.697Z,73.40
2022-11-23T11:17:27.202Z,71.73
2022-11-23T11:20:34.916Z,72.21
2022-11-23T11:23:05.439Z,71.58
2022-11-23T11:25:37.673Z,70.13
2022-11-23T11:28:18.993Z,71.36
2022-11-23T11:31:39.467Z,69.76
2022-11-23T11:34:21.869Z,71.59
2022-11-23T11:37:10.780Z,69.32
2022-11-23T11:39:50.773Z,70.28
2022-11-23T11:46:13.639Z,68.97
2022-11-23T11:48:57.453Z,70.46
2022-11-23T11:51:43.630Z,70.08
2022-11-23T11:55:02.902Z,69.55
2022-11-23T11:57:46.767Z,70.33
2022-11-23T12:00:44.841Z,70.50
2022-11-23T12:03:51.086Z,69.04
2022-11-23T12:06:40.349Z,69.09
2022-11-23T12:09:35.309Z,70.61
2022-11-23T12:12:30.517Z,68.37
2022-11-23T12:15:47.270Z,69.62
2022-11-23T12:18:18.745Z,69.13
2022-11-23T12:21:30.267Z,68.96
2022-11-23T12:24:43.338Z,69.16
2022-11-23T12:28:04.385Z,67.98
2022-11-23T12:30:36.387Z,67.94
2022-11-23T12:33:21.867Z,66.93
2022-11-23T12:36:27.098Z,67.29
2022-11-23T12:39:54.762Z,68.30
2022-11-23T12:43:09.120Z,67.42
2022-11-23T12:46:00.889Z,69.34
2022-11-23T12:48:53.460Z,68.31
2022-11-23T12:52:27.748Z,68.14
2022-11-23T12:55:24.828Z,69.03
2022-11-23T13:02:40.170Z,68.18
2022-11-23T13:06:08.785Z,68.59
2022-11-23T13:09:03.965Z,68.22
2022-11-23T13:12:16.158Z,68.01
2022-11-23T13:15:08.824Z,68.42
2022-11-23T13:18:19.812Z,68.20
2022-11-23T13:21:22.266Z,69.43
2022-11-23T13:24:34.257Z,67.94
2022-11-23T13:27:15.848Z,68.79
2022-11-23T13:29:52.403Z,68.74
2022-11-23T13:32:53.912Z,68.29
2022-11-23T13:35:30.214Z,67.59
2022-11-23T13:38:02.845Z,67.21
2022-11-23T13:40:34.859Z,66.43
2022-11-23T13:43:17.035Z,66.36
2022-11-23T13:46:18.056Z,67.53
2022-11-23T13:48:56.775Z,67.00
2022-11-23T13:51:37.636Z,66.82
2022-11-23T13:54:26.762Z,65.08
2022-11-23T13:57:03.058Z,66.18
2022-11-23T13:59:36.910Z,67.53
2022-11-23T14:02:07.594Z,65.24
2022-11-23T14:04:44.027Z,65.81
2022-11-23T14:07:29.153Z,65.87
2022-11-23T14:10:26.802Z,65.83
2022-11-23T14:13:21.865Z,66.43
2022-11-23T14:16:41.433Z,66.72
2022-11-23T14:19:16.161Z,67.77
2022-11-23T14:22:17.764Z,68.07
2022-11-23T14:25:19.058Z,67.20
2022-11-23T14:28:10.971Z,67.49
2022-11-23T14:31:00.898Z,66.87
2022-11-23T14:33:30.822Z,66.71
2022-11-23T14:36:09.947Z,66.41
2022-11-23T14:39:08.793Z,66.00
2022-11-23T14:41:45.178Z,66.71
2022-11-23T14:44:34.149Z,67.40
2022-11-23T14:47:10.171Z,65.29
2022-11-23T14:49:51.029Z,64.53
2022-11-23T14:52:26.876Z,65.14
2022-11-23T14:55:04.796Z,66.26
2022-11-23T14:57:47.375Z,66.01
2022-11-23T15:00:27.993Z,65.38
2022-11-23T15:03:42.740Z,65.24
2022-11-23T15:06:18.030Z,64.70
2022-11-23T15:09:07.895Z,67.10
2022-11-23T15:11:43.682Z,67.49
2022-11-23T15:14:26.778Z,67.48
2022-11-23T15:16:59.877Z,66.97
2022-11-23T15:19:29.993Z,67.15
2022-11-23T15:22:16.915Z,67.10
2022-11-23T15:24:48.002Z,67.62
2022-11-23T15:27:29.781Z,67.91
2022-11-23T15:30:06.090Z,68.24
2022-11-23T15:32:54.763Z,68.10
2022-11-23T15:35:39.904Z,67.70
2022-11-23T15:38:26.775Z,67.93
2022-11-23T15:41:05.403Z,67.58
2022-11-23T15:43:35.626Z,67.69
2022-11-23T15:46:18.790Z,66.71
2022-11-23T15:48:51.836Z,66.83
2022-11-23T15:54:22.575Z,66.76
2022-11-23T15:56:59.760Z,66.86
2022-11-23T16:02:26.460Z,66.66
2022-11-23T16:05:18.921Z,66.54
2022-11-23T16:08:02.371Z,67.15
2022-11-23T16:10:35.534Z,67.28
2022-11-23T16:13:16.267Z,67.44
2022-11-23T16:16:00.759Z,67.43
2022-11-23T16:18:34.290Z,66.98
2022-11-23T16:21:11.207Z,67.07
2022-11-23T16:23:52.736Z,67.44
2022-11-23T16:26:29.177Z,67.44
2022-11-23T16:29:13.674Z,67.26
2022-11-23T16:31:56.418Z,67.37
2022-11-23T16:37:10.856Z,66.40
2022-11-23T16:39:40.152Z,65.86
2022-11-23T16:44:56.366Z,65.58
2022-11-23T16:47:31.912Z,66.34
2022-11-23T16:50:02.797Z,65.58
2022-11-23T16:52:32.190Z,65.65
2022-11-23T16:55:00.403Z,65.71
2022-11-23T16:57:37.997Z,66.13
2022-11-23T17:00:16.187Z,67.03
2022-11-23T17:02:44.609Z,66.66
2022-11-23T17:05:20.973Z,67.91
2022-11-23T17:07:49.896Z,67.40
2022-11-23T17:10:22.798Z,66.71
2022-11-23T17:12:55.138Z,67.23
2022-11-23T17:15:31.995Z,67.74
2022-11-23T17:18:14.279Z,67.77
2022-11-23T17:20:42.546Z,66.56
2022-11-23T17:23:24.111Z,66.41
2022-11-23T17:25:56.594Z,67.16
2022-11-23T17:28:30.861Z,67.63
2022-11-23T17:31:01.965Z,67.17
2022-11-23T17:36:10.155Z,65.61
2022-11-23T17:38:40.044Z,66.83
2022-11-23T17:41:11.149Z,68.29
2022-11-23T17:43:41.467Z,67.98
2022-11-23T17:46:24.354Z,68.38
2022-11-23T17:49:02.634Z,68.05
2022-11-23T17:51:33.159Z,67.56
2022-11-23T17:54:10.732Z,67.41
2022-11-23T17:56:48.897Z,67.58
2022-11-23T18:01:56.804Z,67.21
2022-11-23T18:04:25.592Z,68.95
2022-11-23T18:06:57.004Z,67.96
2022-11-23T18:09:29.926Z,68.60
2022-11-23T18:12:04.755Z,68.04
2022-11-23T18:14:33.769Z,68.33
2022-11-23T18:17:04.977Z,68.05
2022-11-23T18:19:41.487Z,68.35
2022-11-23T18:22:12.085Z,67.68
2022-11-23T18:24:41.055Z,67.65
2022-11-23T18:30:16.270Z,67.65
2022-11-23T18:33:00.842Z,67.01
2022-11-23T18:35:45.449Z,67.70
2022-11-23T18:38:50.987Z,67.91
2022-11-23T18:41:32.747Z,67.74
2022-11-23T18:47:59.745Z,67.76
2022-11-23T18:53:37.130Z,68.23
2022-11-23T18:56:25.100Z,68.26
2022-11-23T18:59:08.094Z,67.90
2022-11-23T19:01:55.912Z,67.99
2022-11-23T19:04:41.846Z,67.52
2022-11-23T19:07:20.924Z,67.74
2022-11-23T19:10:05.084Z,67.86
2022-11-23T19:13:05.139Z,68.04
2022-11-23T19:15:43.171Z,67.83
2022-11-23T19:18:35.718Z,67.51
2022-11-23T19:21:23.915Z,67.75
2022-11-23T19:26:50.857Z,67.74
2022-11-23T19:29:40.199Z,67.51
2022-11-23T19:32:43.028Z,67.05
2022-11-23T19:35:27.145Z,67.75
2022-11-23T19:38:11.836Z,66.72
2022-11-23T19:41:01.958Z,66.69
2022-11-23T19:46:49.160Z,67.38
2022-11-23T19:49:37.783Z,67.93
2022-11-23T19:53:03.434Z,67.72
2022-11-23T19:55:18.061Z,66.93
2022-11-23T19:58:01.904Z,67.09
2022-11-23T20:00:49.785Z,67.48
2022-11-23T20:03:51.776Z,67.65
2022-11-23T20:06:25.186Z,66.96
2022-11-23T20:09:35.875Z,66.81
2022-11-23T20:12:30.726Z,67.07
2022-11-23T20:15:33.758Z,67.86
2022-11-23T20:18:17.836Z,67.07
2022-11-23T20:25:00.861Z,67.42
2022-11-23T20:27:59.197Z,67.19
2022-11-23T20:30:56.911Z,67.70
2022-11-23T20:36:20.999Z,67.99
2022-11-23T20:39:29.088Z,68.32
2022-11-23T20:41:59.322Z,67.95
2022-11-23T20:44:37.775Z,68.16
2022-11-23T20:47:07.875Z,68.21
2022-11-23T20:49:46.092Z,68.50
2022-11-23T20:52:15.936Z,68.41
2022-11-23T20:54:55.783Z,67.58
2022-11-23T20:57:28.828Z,68.04
2022-11-23T20:59:59.382Z,67.63
2022-11-23T21:02:33.058Z,68.15
2022-11-23T21:05:11.767Z,67.85
2022-11-23T21:07:54.935Z,68.02
2022-11-23T21:10:56.796Z,68.08
2022-11-23T21:13:52.019Z,67.95
2022-11-23T21:16:28.117Z,68.10
2022-11-23T21:18:58.254Z,68.17
2022-11-23T21:21:43.704Z,68.02
2022-11-23T21:24:18.716Z,67.82
2022-11-23T21:26:48.693Z,68.05
2022-11-23T21:29:30.773Z,68.17
2022-11-23T21:32:00.877Z,68.11
2022-11-23T21:34:41.140Z,67.74
2022-11-23T21:37:11.512Z,67.46
2022-11-23T21:39:41.613Z,68.09
2022-11-23T21:42:11.926Z,67.98
2022-11-23T21:44:52.581Z,67.93
2022-11-23T21:47:25.706Z,68.44
2022-11-23T21:49:56.034Z,68.97
2022-11-23T21:52:25.979Z,68.47
2022-11-23T21:55:15.748Z,68.45
2022-11-23T21:57:49.997Z,67.84
2022-11-23T22:00:37.621Z,68.32
2022-11-23T22:03:06.647Z,67.57
2022-11-23T22:05:57.101Z,67.51
2022-11-23T22:08:53.955Z,67.08
2022-11-23T22:11:25.195Z,67.38
2022-11-23T22:13:57.642Z,67.76
2022-11-23T22:16:30.799Z,67.69
2022-11-23T22:18:59.951Z,67.18
2022-11-23T22:21:30.895Z,67.64
2022-11-23T22:24:00.064Z,68.24
2022-11-23T22:26:28.929Z,67.38
2022-11-23T22:29:02.443Z,67.60
2022-11-23T22:31:34.895Z,67.69
2022-11-23T22:34:23.751Z,67.78
2022-11-23T22:37:10.647Z,67.33
2022-11-23T22:44:15.565Z,68.23
2022-11-23T22:46:57.948Z,67.78
2022-11-23T22:49:43.398Z,68.02
2022-11-23T22:52:26.379Z,68.22
2022-11-23T22:55:21.752Z,67.69
2022-11-23T22:58:05.971Z,68.00
2022-11-23T23:00:49.338Z,68.15
2022-11-23T23:03:32.074Z,68.23
2022-11-23T23:06:17.820Z,68.69
2022-11-23T23:09:01.426Z,68.23
2022-11-23T23:11:44.094Z,67.48
2022-11-23T23:14:28.113Z,67.71
2022-11-23T23:17:15.346Z,67.56
2022-11-23T23:19:58.088Z,68.73
2022-11-23T23:22:41.099Z,67.28
2022-11-23T23:25:23.803Z,68.13
2022-11-23T23:28:07.083Z,69.29
2022-11-23T23:30:49.710Z,68.66
2022-11-23T23:33:19.277Z,67.96
2022-11-23T23:35:46.940Z,68.20
2022-11-23T23:38:14.494Z,67.80
2022-11-23T23:40:43.160Z,68.29
2022-11-23T23:43:10.976Z,68.75
2022-11-23T23:46:07.848Z,68.93
2022-11-23T23:48:50.874Z,68.70
2022-11-23T23:51:36.372Z,68.11
2022-11-23T23:54:18.839Z,68.22
2022-11-23T23:57:32.539Z,68.40
